Time;durP1;ratioP1;P1;durP2;ratioP2;P2;SDS_P1;SDS_P2;PMS_P1;PMS_P2;Temp;Humidity;BMP_temperature;BMP_pressure;BME280_temperature;BME280_humidity;BME280_pressure;Samples;Min_cycle;Max_cycle;Signal;HPM_P1;HPM_P2
2021/12/18 00:01:15;;;;;;;19.00;12.77;;;;;;;;;;5113085;28;20479;-71
2021/12/18 00:03:42;;;;;;;20.27;12.43;;;;;;;;;;5112430;28;20448;-71
2021/12/18 00:06:09;;;;;;;21.37;12.37;;;;;;;;;;5113200;28;20459;-71
2021/12/18 00:08:37;;;;;;;20.33;13.10;;;;;;;;;;5113574;28;20435;-71
2021/12/18 00:11:04;;;;;;;22.73;13.13;;;;;;;;;;5113446;28;20942;-70
2021/12/18 00:13:31;;;;;;;22.17;13.40;;;;;;;;;;5112332;28;20530;-71
2021/12/18 00:19:03;;;;;;;25.03;12.40;;;;;;;;;;5112960;28;20900;-70
2021/12/18 00:21:31;;;;;;;15.43;12.13;;;;;;;;;;5113257;28;20565;-71
2021/12/18 00:23:58;;;;;;;17.57;11.47;;;;;;;;;;5112437;28;20505;-70
2021/12/18 00:26:25;;;;;;;18.80;12.13;;;;;;;;;;5113514;28;20530;-71
2021/12/18 00:28:52;;;;;;;22.70;13.27;;;;;;;;;;5108395;28;20452;-71
2021/12/18 00:31:19;;;;;;;18.03;12.63;;;;;;;;;;5112487;28;20535;-71
2021/12/18 00:33:46;;;;;;;19.83;12.40;;;;;;;;;;5112897;28;20448;-71
2021/12/18 00:36:15;;;;;;;18.50;13.03;;;;;;;;;;5112233;28;20467;-70
2021/12/18 00:38:42;;;;;;;19.00;13.73;;;;;;;;;;5113018;28;20462;-71
2021/12/18 00:41:26;;;;;;;19.50;12.73;;;;;;;;;;5112501;28;20510;-71
2021/12/18 00:44:03;;;;;;;17.23;13.27;;;;;;;;;;5112846;28;20448;-70
2021/12/18 00:46:31;;;;;;;18.07;12.40;;;;;;;;;;5100648;28;20435;-70
2021/12/18 00:48:59;;;;;;;17.87;12.10;;;;;;;;;;5112378;28;20443;-70
2021/12/18 00:51:27;;;;;;;16.57;12.17;;;;;;;;;;5112951;28;21030;-71
2021/12/18 00:53:54;;;;;;;18.03;12.87;;;;;;;;;;5112019;28;20440;-70
2021/12/18 00:56:22;;;;;;;16.10;12.27;;;;;;;;;;5112351;28;20948;-70
2021/12/18 00:58:50;;;;;;;17.73;12.57;;;;;;;;;;5112877;28;20447;-70
2021/12/18 01:01:18;;;;;;;16.80;12.20;;;;;;;;;;5112039;28;20515;-70
2021/12/18 01:03:46;;;;;;;18.40;12.60;;;;;;;;;;5112010;28;20958;-71
2021/12/18 01:06:14;;;;;;;18.10;12.70;;;;;;;;;;5112254;28;20459;-70
2021/12/18 01:08:42;;;;;;;20.03;13.53;;;;;;;;;;5100112;28;20448;-70
2021/12/18 01:11:30;;;;;;;17.73;12.93;;;;;;;;;;5112474;28;20450;-70
2021/12/18 01:14:12;;;;;;;18.53;12.40;;;;;;;;;;5111833;28;20795;-70
2021/12/18 01:16:48;;;;;;;16.83;11.80;;;;;;;;;;5112758;28;20531;-70
2021/12/18 01:24:45;;;;;;;16.37;12.03;;;;;;;;;;5111794;28;20947;-70
2021/12/18 01:27:13;;;;;;;15.03;11.40;;;;;;;;;;5111342;28;20961;-70
2021/12/18 01:29:40;;;;;;;16.70;11.90;;;;;;;;;;5112693;28;20928;-71
2021/12/18 01:32:08;;;;;;;19.50;11.93;;;;;;;;;;5103248;28;20454;-70
2021/12/18 01:34:36;;;;;;;17.37;12.33;;;;;;;;;;5111580;28;20531;-70
2021/12/18 01:37:03;;;;;;;14.73;11.33;;;;;;;;;;5111420;28;20501;-70
2021/12/18 01:39:30;;;;;;;21.37;13.27;;;;;;;;;;5111809;28;20527;-70
2021/12/18 01:42:20;;;;;;;15.93;12.07;;;;;;;;;;5111285;28;20475;-70
2021/12/18 01:44:58;;;;;;;17.03;12.27;;;;;;;;;;5111164;28;20443;-71
2021/12/18 01:52:56;;;;;;;17.43;12.47;;;;;;;;;;5112110;28;20507;-70
2021/12/18 01:55:27;;;;;;;17.20;12.40;;;;;;;;;;5111749;28;20489;-71
2021/12/18 01:57:56;;;;;;;18.53;12.63;;;;;;;;;;5111800;28;20439;-70
2021/12/18 02:00:24;;;;;;;17.80;12.00;;;;;;;;;;5111679;28;20566;-70
2021/12/18 02:02:51;;;;;;;18.77;12.47;;;;;;;;;;5111651;28;20443;-70
2021/12/18 02:05:19;;;;;;;17.40;13.27;;;;;;;;;;5110456;28;20455;-70
2021/12/18 02:07:46;;;;;;;19.97;12.73;;;;;;;;;;5110600;28;20440;-70
2021/12/18 02:10:18;;;;;;;23.17;14.60;;;;;;;;;;5110994;28;20523;-70
2021/12/18 02:12:52;;;;;;;20.83;13.67;;;;;;;;;;5111694;28;20480;-70
2021/12/18 02:20:55;;;;;;;17.30;11.80;;;;;;;;;;5101536;28;21030;-70
2021/12/18 02:23:22;;;;;;;18.47;13.33;;;;;;;;;;5107563;28;20802;-70
2021/12/18 02:25:50;;;;;;;16.33;11.00;;;;;;;;;;5111686;28;20447;-70
2021/12/18 02:28:22;;;;;;;18.37;12.07;;;;;;;;;;5109258;28;20546;-70
2021/12/18 02:30:50;;;;;;;19.00;11.77;;;;;;;;;;5102938;28;20487;-70
2021/12/18 02:33:17;;;;;;;21.20;12.10;;;;;;;;;;5110200;28;20800;-70
2021/12/18 02:35:48;;;;;;;18.03;13.10;;;;;;;;;;5111129;28;20851;-70
2021/12/18 02:38:20;;;;;;;17.03;12.23;;;6.60;99.90;;;;;;5110338;28;20440;-70
2021/12/18 02:43:31;;;;;;;16.40;11.70;;;5.10;99.90;;;;;;5105725;28;20809;-70
2021/12/18 02:45:59;;;;;;;17.93;12.90;;;5.20;42.70;;;;;;5110714;28;20443;-70
2021/12/18 02:48:28;;;;;;;17.80;11.87;;;5.10;1.00;;;;;;5105961;28;20450;-73
2021/12/18 02:50:56;;;;;;;18.57;12.10;;;5.30;1.00;;;;;;5111586;28;20796;-70
2021/12/18 02:53:27;;;;;;;17.70;12.70;;;5.10;99.90;;;;;;5111001;28;20563;-70
2021/12/18 02:55:55;;;;;;;21.73;14.20;;;5.20;99.90;;;;;;5110527;28;20436;-70
2021/12/18 02:58:22;;;;;;;19.47;12.63;;;5.10;99.90;;;;;;5111420;28;20451;-70
2021/12/18 03:00:49;;;;;;;18.13;12.07;;;5.20;99.90;;;;;;5110242;28;21050;-70
2021/12/18 03:03:17;;;;;;;18.73;13.20;;;5.20;1.00;;;;;;5109906;28;20783;-70
2021/12/18 03:05:52;;;;;;;19.87;13.03;;;5.10;1.00;;;;;;5110499;28;20821;-70
2021/12/18 03:08:33;;;;;;;17.43;12.03;;;5.20;96.10;;;;;;5109969;28;20943;-70
2021/12/18 03:25:00;;;;;;;17.50;12.80;;;5.00;99.90;;;;;;5113754;28;20431;-71
2021/12/18 03:27:28;;;;;;;21.10;13.50;;;5.00;95.70;;;;;;5114756;28;20470;-71
2021/12/18 03:29:56;;;;;;;20.70;11.97;;;5.10;99.90;;;;;;5114255;28;20443;-71
2021/12/18 03:32:23;;;;;;;20.30;12.87;;;5.10;1.00;;;;;;5114790;28;20600;-70
2021/12/18 03:34:51;;;;;;;18.23;12.80;;;5.20;23.20;;;;;;5102132;28;20443;-71
2021/12/18 03:37:19;;;;;;;23.27;12.70;;;4.90;99.90;;;;;;5114099;28;20562;-70
2021/12/18 03:39:46;;;;;;;22.07;13.60;;;4.90;99.90;;;;;;5114464;28;20452;-70
2021/12/18 03:42:13;;;;;;;19.23;13.00;;;4.90;99.90;;;;;;5112003;28;20481;-70
2021/12/18 03:44:41;;;;;;;18.20;12.67;;;5.00;99.90;;;;;;5113634;28;20443;-71
2021/12/18 03:47:08;;;;;;;17.30;12.70;;;5.00;93.70;;;;;;5113757;28;20457;-70
2021/12/18 03:49:35;;;;;;;20.07;12.03;;;5.10;99.90;;;;;;5114345;28;20443;-71
2021/12/18 03:52:02;;;;;;;19.23;12.17;;;5.00;1.00;;;;;;5113537;28;20443;-70
2021/12/18 03:54:29;;;;;;;20.03;12.70;;;5.00;99.90;;;;;;5112948;28;20444;-71
2021/12/18 03:56:57;;;;;;;16.20;11.50;;;5.00;99.90;;;;;;5114325;28;20443;-71
2021/12/18 03:59:23;;;;;;;18.73;12.70;;;4.80;99.90;;;;;;5114177;28;20455;-70
2021/12/18 04:01:52;;;;;;;19.70;12.17;;;4.90;99.90;;;;;;5112662;28;20480;-70
2021/12/18 04:04:19;;;;;;;21.20;12.97;;;4.90;99.90;;;;;;5104435;28;20807;-70
2021/12/18 04:06:46;;;;;;;18.47;13.50;;;4.80;99.90;;;;;;5114462;28;20451;-70
2021/12/18 04:09:13;;;;;;;17.47;11.10;;;4.70;99.90;;;;;;5112904;28;20967;-70
2021/12/18 04:11:41;;;;;;;18.47;12.93;;;4.70;99.90;;;;;;5113701;28;20447;-70
2021/12/18 04:14:08;;;;;;;17.70;10.27;;;4.80;99.90;;;;;;5112066;28;20444;-70
2021/12/18 04:16:35;;;;;;;15.87;10.57;;;4.90;99.90;;;;;;5113564;28;20494;-70
2021/12/18 04:19:04;;;;;;;18.70;11.60;;;4.90;99.90;;;;;;5112804;28;20435;-70
2021/12/18 04:21:32;;;;;;;19.77;11.93;;;5.00;99.90;;;;;;5114085;28;20483;-70
2021/12/18 04:23:59;;;;;;;18.03;11.97;;;4.90;99.90;;;;;;5112435;28;20525;-70
2021/12/18 04:26:26;;;;;;;17.73;11.10;;;4.80;99.90;;;;;;5113422;28;20477;-70
2021/12/18 04:28:53;;;;;;;20.13;12.07;;;4.70;99.90;;;;;;5113530;28;20444;-70
2021/12/18 04:31:20;;;;;;;21.43;11.63;;;4.60;1.00;;;;;;5107821;28;20880;-70
2021/12/18 04:33:47;;;;;;;17.43;10.70;;;4.50;99.90;;;;;;5112570;28;20978;-71
2021/12/18 04:36:15;;;;;;;19.33;10.73;;;4.70;99.90;;;;;;5112005;28;20569;-71
2021/12/18 04:38:42;;;;;;;16.47;10.73;;;4.60;99.90;;;;;;5102430;28;20453;-71
2021/12/18 04:41:10;;;;;;;16.57;10.77;;;4.50;99.90;;;;;;5111927;28;20482;-70
2021/12/18 04:43:37;;;;;;;19.03;11.07;;;4.50;1.00;;;;;;5113310;28;20490;-70
2021/12/18 04:46:04;;;;;;;21.60;11.93;;;4.50;1.00;;;;;;5112450;28;20535;-70
2021/12/18 04:48:31;;;;;;;17.33;10.53;;;4.50;99.90;;;;;;5113080;28;20446;-71
2021/12/18 04:50:58;;;;;;;22.77;12.90;;;4.60;99.90;;;;;;5109724;28;20824;-70
2021/12/18 04:53:26;;;;;;;14.57;9.40;;;4.50;99.90;;;;;;5102941;28;20443;-70
2021/12/18 04:55:53;;;;;;;18.87;9.93;;;4.70;99.90;;;;;;5113067;28;20451;-70
2021/12/18 04:58:20;;;;;;;16.60;10.77;;;4.60;99.90;;;;;;5123704;27;20446;-70
2021/12/18 05:00:47;;;;;;;18.53;11.33;;;4.70;99.90;;;;;;5115013;27;20562;-71
2021/12/18 05:03:18;;;;;;;19.63;10.37;;;4.50;99.90;;;;;;5102235;28;20497;-70
2021/12/18 05:05:45;;;;;;;15.90;10.23;;;4.60;99.90;;;;;;5113194;28;20460;-71
2021/12/18 05:08:12;;;;;;;20.57;11.00;;;4.60;99.90;;;;;;5112103;28;20446;-70
2021/12/18 05:10:40;;;;;;;16.77;10.37;;;4.40;99.90;;;;;;5112293;28;20451;-70
2021/12/18 05:13:07;;;;;;;16.80;9.63;;;4.60;99.90;;;;;;5111763;28;20965;-70
2021/12/18 05:15:34;;;;;;;17.67;10.43;;;4.40;99.90;;;;;;5112922;28;20538;-70
2021/12/18 05:18:01;;;;;;;17.00;10.00;;;4.50;99.90;;;;;;5112063;28;20450;-71
2021/12/18 05:20:28;;;;;;;16.80;10.13;;;4.50;99.90;;;;;;5111858;28;20970;-70
2021/12/18 05:22:55;;;;;;;20.23;11.00;;;4.50;99.90;;;;;;5114572;28;20507;-70
2021/12/18 05:25:22;;;;;;;19.43;10.53;;;4.40;99.90;;;;;;5112648;28;20845;-73
2021/12/18 05:27:50;;;;;;;16.10;9.00;;;4.40;99.90;;;;;;5112270;28;20514;-70
2021/12/18 05:30:17;;;;;;;16.80;10.20;;;4.60;99.90;;;;;;5111442;28;20448;-72
2021/12/18 05:32:44;;;;;;;16.50;9.27;;;4.50;99.90;;;;;;5111750;28;20464;-70
2021/12/18 05:35:13;;;;;;;17.27;9.60;;;4.40;99.90;;;;;;5111036;28;20447;-70
2021/12/18 05:37:51;;;;;;;21.30;10.20;;;4.30;99.90;;;;;;5109744;28;20463;-70
2021/12/18 05:40:20;;;;;;;18.83;11.10;;;4.40;99.90;;;;;;5111785;28;20520;-70
2021/12/18 05:42:48;;;;;;;17.53;11.33;;;4.40;99.90;;;;;;5110737;28;20489;-71
2021/12/18 05:45:16;;;;;;;14.80;10.40;;;4.40;99.90;;;;;;5111898;28;20453;-71
2021/12/18 05:47:44;;;;;;;12.90;8.37;;;4.30;99.90;;;;;;5112232;28;20544;-71
2021/12/18 05:50:12;;;;;;;17.30;11.10;;;4.30;99.90;;;;;;5111840;28;20440;-71
2021/12/18 05:52:40;;;;;;;20.50;11.57;;;4.40;99.90;;;;;;5108563;28;21028;-71
2021/12/18 05:55:08;;;;;;;16.70;10.37;;;4.40;99.90;;;;;;5109793;28;20931;-71
2021/12/18 05:57:35;;;;;;;16.87;9.93;;;4.60;99.90;;;;;;5109090;28;20451;-71
2021/12/18 06:00:04;;;;;;;22.40;11.07;;;4.30;99.90;;;;;;5111635;28;20444;-72
2021/12/18 06:02:32;;;;;;;16.13;10.63;;;4.20;1.00;;;;;;5111181;28;20990;-72
2021/12/18 06:04:59;;;;;;;18.80;10.60;;;4.30;99.90;;;;;;5103502;28;20454;-71
2021/12/18 06:07:31;;;;;;;15.90;9.80;;;4.40;99.90;;;;;;5112055;28;20456;-72
2021/12/18 06:09:58;;;;;;;20.77;11.33;;;4.30;99.90;;;;;;5111595;28;20530;-71
2021/12/18 06:12:25;;;;;;;21.13;12.20;;;4.40;99.90;;;;;;5112639;28;20943;-71
2021/12/18 06:14:52;;;;;;;16.77;9.87;;;4.20;99.90;;;;;;5109811;28;20447;-71
2021/12/18 06:17:19;;;;;;;14.57;10.00;;;4.20;99.90;;;;;;5097968;28;20448;-71
2021/12/18 06:19:48;;;;;;;17.37;10.43;;;4.40;99.90;;;;;;5111917;28;20453;-73
2021/12/18 06:22:14;;;;;;;18.30;11.20;;;4.40;99.90;;;;;;5111887;28;20491;-74
2021/12/18 06:24:41;;;;;;;17.00;10.50;;;4.30;99.90;;;;;;5111280;28;20447;-74
2021/12/18 06:27:08;;;;;;;16.10;9.77;;;4.20;99.90;;;;;;5111706;28;20451;-74
2021/12/18 06:29:38;;;;;;;17.70;10.10;;;4.20;1.00;;;;;;5111946;28;20448;-74
2021/12/18 06:32:06;;;;;;;15.90;8.60;;;4.40;99.90;;;;;;5110969;28;20462;-74
2021/12/18 06:34:32;;;;;;;20.43;9.83;;;4.30;99.90;;;;;;5110551;28;21002;-73
2021/12/18 06:37:01;;;;;;;18.77;11.40;;;4.20;99.90;;;;;;5111337;28;20826;-74
2021/12/18 06:39:27;;;;;;;16.90;10.23;;;4.20;99.90;;;;;;5111587;28;20491;-72
2021/12/18 06:41:54;;;;;;;16.20;8.40;;;4.10;1.00;;;;;;5111454;28;20490;-72
2021/12/18 06:44:21;;;;;;;12.97;8.03;;;4.10;1.00;;;;;;5110028;28;20993;-72
2021/12/18 06:46:48;;;;;;;15.93;8.60;;;4.20;99.90;;;;;;5107631;28;20445;-72
2021/12/18 06:49:15;;;;;;;17.17;9.33;;;4.30;99.90;;;;;;5101058;28;20800;-72
2021/12/18 06:51:42;;;;;;;14.30;8.93;;;4.50;99.90;;;;;;5111409;28;20529;-73
2021/12/18 06:54:10;;;;;;;13.93;9.13;;;4.50;9.40;;;;;;5114366;28;20447;-77
2021/12/18 06:56:37;;;;;;;10.77;7.80;;;4.40;1.00;;;;;;5115481;28;20534;-73
2021/12/18 06:59:04;;;;;;;17.47;8.37;;;4.50;1.00;;;;;;5100347;28;20443;-73
2021/12/18 07:01:31;;;;;;;13.30;7.93;;;4.50;1.00;;;;;;5115581;28;20517;-73
2021/12/18 07:03:58;;;;;;;13.83;9.37;;;4.50;1.00;;;;;;5114720;28;20450;-72
2021/12/18 07:06:25;;;;;;;13.93;7.43;;;4.50;1.00;;;;;;5115243;28;20546;-72
2021/12/18 07:08:52;;;;;;;11.77;8.13;;;4.50;1.00;;;;;;5115601;28;20439;-72
2021/12/18 07:11:20;;;;;;;11.63;7.80;;;4.50;1.00;;;;;;5114790;28;20447;-72
2021/12/18 07:13:47;;;;;;;11.87;7.90;;;4.50;1.00;;;;;;5110594;28;20454;-71
2021/12/18 07:16:14;;;;;;;12.90;8.43;;;4.60;1.00;;;;;;5105832;28;20465;-71
2021/12/18 07:18:41;;;;;;;15.70;7.77;;;4.60;99.90;;;;;;5110993;28;20451;-71
2021/12/18 07:21:08;;;;;;;11.60;7.47;;;4.60;1.00;;;;;;5105263;28;20492;-71
2021/12/18 07:23:34;;;;;;;13.60;7.73;;;4.50;1.00;;;;;;5114737;28;20483;-71
2021/12/18 07:26:01;;;;;;;14.53;7.53;;;4.40;40.80;;;;;;5112917;28;20876;-71
2021/12/18 07:28:29;;;;;;;13.93;7.70;;;4.60;1.00;;;;;;5115139;28;20861;-70
2021/12/18 07:30:57;;;;;;;14.97;7.93;;;4.70;1.00;;;;;;5115181;28;20534;-69
2021/12/18 07:33:24;;;;;;;11.80;6.80;;;4.60;38.10;;;;;;5113709;28;20443;-73
2021/12/18 07:35:50;;;;;;;20.10;8.50;;;4.60;1.00;;;;;;5114726;28;20501;-72
2021/12/18 07:38:17;;;;;;;12.80;6.87;;;4.80;1.00;;;;;;5114529;28;20555;-73
2021/12/18 07:40:44;;;;;;;16.03;8.37;;;4.80;1.00;;;;;;5114818;28;20826;-74
2021/12/18 07:43:12;;;;;;;11.30;6.87;;;4.80;1.00;;;;;;5113701;28;20582;-76
2021/12/18 07:45:40;;;;;;;11.23;7.70;;;4.80;1.00;;;;;;5114783;28;20537;-73
2021/12/18 07:48:07;;;;;;;13.23;7.10;;;4.80;1.00;;;;;;5113805;28;20979;-73
2021/12/18 07:50:34;;;;;;;14.90;7.03;;;4.60;3.80;;;;;;5114415;28;20450;-73
2021/12/18 07:53:01;;;;;;;17.70;8.13;;;4.50;1.00;;;;;;5113681;28;20451;-73
2021/12/18 07:55:29;;;;;;;12.77;7.40;;;4.60;22.30;;;;;;5114398;28;20450;-73
2021/12/18 07:57:56;;;;;;;13.70;8.40;;;4.40;99.90;;;;;;5102414;28;20448;-74
2021/12/18 08:00:24;;;;;;;16.60;7.87;;;4.40;99.90;;;;;;5114680;28;20452;-73
2021/12/18 08:02:52;;;;;;;13.17;8.17;;;4.50;99.90;;;;;;5113772;28;21038;-73
2021/12/18 08:05:19;;;;;;;13.20;8.63;;;4.50;99.90;;;;;;5113067;28;20542;-73
2021/12/18 08:07:47;;;;;;;15.27;8.80;;;4.60;99.90;;;;;;5114616;28;20559;-73
2021/12/18 08:10:14;;;;;;;14.43;7.80;;;4.60;99.90;;;;;;5111092;28;20448;-74
2021/12/18 08:12:41;;;;;;;13.03;8.70;;;4.50;99.90;;;;;;5111139;28;20932;-72
2021/12/18 08:15:09;;;;;;;11.60;7.60;;;4.50;99.90;;;;;;5113695;28;20544;-73
2021/12/18 08:17:37;;;;;;;16.00;9.40;;;4.70;99.90;;;;;;5114361;28;20447;-73
2021/12/18 08:20:07;;;;;;;17.50;8.37;;;4.80;1.00;;;;;;5113616;28;20853;-73
2021/12/18 08:22:34;;;;;;;13.63;7.00;;;4.70;99.90;;;;;;5113814;28;20471;-73
2021/12/18 08:25:02;;;;;;;19.47;8.23;;;4.90;1.00;;;;;;5113066;28;20458;-73
2021/12/18 08:27:29;;;;;;;12.20;7.43;;;5.00;1.00;;;;;;5113814;28;20939;-72
2021/12/18 08:29:56;;;;;;;15.83;7.53;;;4.90;1.00;;;;;;5113816;28;20443;-73
2021/12/18 08:32:23;;;;;;;18.90;9.07;;;5.00;25.70;;;;;;5113721;28;20547;-73
2021/12/18 08:34:50;;;;;;;16.20;7.87;;;4.90;1.00;;;;;;5113772;28;20463;-73
2021/12/18 08:37:20;;;;;;;14.60;9.03;;;4.90;70.70;;;;;;5113379;28;20489;-73
2021/12/18 08:39:47;;;;;;;12.33;6.77;;;4.70;98.70;;;;;;5113679;28;20452;-72
2021/12/18 08:42:15;;;;;;;15.30;8.00;;;5.10;36.80;;;;;;5112592;28;20511;-73
2021/12/18 08:44:42;;;;;;;12.87;8.93;;;5.50;99.90;;;;;;5113610;28;20539;-73
2021/12/18 08:47:10;;;;;;;13.33;8.30;;;5.80;74.30;;;;;;5113154;28;20531;-73
2021/12/18 08:49:38;;;;;;;10.97;7.93;;;5.40;92.20;;;;;;5113585;28;20798;-73
2021/12/18 08:52:06;;;;;;;15.37;9.07;;;5.10;1.00;;;;;;5112543;28;20451;-73
2021/12/18 08:54:34;;;;;;;14.20;8.17;;;5.00;1.00;;;;;;5113196;28;20446;-73
2021/12/18 08:57:01;;;;;;;13.47;8.60;;;5.00;1.00;;;;;;5112201;28;20779;-70
2021/12/18 08:59:28;;;;;;;15.00;8.60;;;5.00;1.00;;;;;;5099787;28;20458;-73
2021/12/18 09:01:55;;;;;;;15.80;8.53;;;5.00;99.90;;;;;;5112674;28;20540;-72
2021/12/18 09:04:22;;;;;;;14.27;8.70;;;4.90;99.90;;;;;;5113619;28;20451;-73
2021/12/18 09:06:48;;;;;;;16.40;9.53;;;5.00;1.00;;;;;;5113526;28;20880;-73
2021/12/18 09:09:15;;;;;;;17.37;9.27;;;4.80;99.90;;;;;;5113330;28;20450;-73
2021/12/18 09:11:44;;;;;;;16.97;8.73;;;4.60;1.00;;;;;;5133195;28;20436;-74
2021/12/18 09:14:11;;;;;;;15.13;9.13;;;4.80;1.00;;;;;;5135886;28;20447;-72
2021/12/18 09:16:38;;;;;;;15.70;8.80;;;4.90;99.90;;;;;;5126192;28;20451;-73
2021/12/18 09:19:05;;;;;;;17.83;9.93;;;5.00;83.00;;;;;;5113817;28;20534;-73
2021/12/18 09:21:32;;;;;;;14.17;7.57;;;4.80;99.90;;;;;;5113656;28;20542;-73
2021/12/18 09:23:59;;;;;;;12.03;8.20;;;4.90;99.90;;;;;;5112251;28;20519;-73
2021/12/18 09:26:25;;;;;;;16.30;8.27;;;5.00;99.90;;;;;;5112957;28;20440;-73
2021/12/18 09:28:54;;;;;;;16.03;7.53;;;5.40;1.00;;;;;;5112659;28;20443;-73
2021/12/18 09:31:21;;;;;;;12.50;7.70;;;5.30;99.90;;;;;;5111927;28;20973;-73
2021/12/18 09:33:48;;;;;;;13.60;8.30;;;5.20;1.00;;;;;;5112152;28;20957;-74
2021/12/18 09:36:15;;;;;;;16.63;9.00;;;5.10;99.90;;;;;;5111700;28;20987;-73
2021/12/18 09:38:42;;;;;;;14.00;8.60;;;4.80;1.00;;;;;;5112479;28;20447;-73
2021/12/18 09:41:09;;;;;;;12.30;7.30;;;4.80;99.90;;;;;;5111894;28;20446;-73
2021/12/18 09:43:37;;;;;;;13.90;8.30;;;4.80;99.90;;;;;;5112127;28;20829;-73
2021/12/18 09:46:08;;;;;;;18.13;9.00;;;4.90;99.90;;;;;;5111692;28;20456;-73
2021/12/18 09:48:38;;;;;;;17.70;9.30;;;4.90;1.00;;;;;;5112625;28;20452;-74
2021/12/18 09:51:11;;;;;;;13.80;7.57;;;4.90;99.90;;;;;;5112073;28;20453;-73
2021/12/18 09:53:39;;;;;;;14.17;7.60;;;4.80;99.90;;;;;;5112095;28;20944;-73
2021/12/18 09:56:08;;;;;;;15.50;8.77;;;5.00;99.90;;;;;;5111632;28;20454;-73
2021/12/18 09:58:35;;;;;;;16.70;8.80;;;5.20;99.90;;;;;;5112017;28;20439;-73
2021/12/18 10:01:02;;;;;;;15.53;7.80;;;5.00;99.90;;;;;;5111374;28;20443;-73
2021/12/18 10:03:48;;;;;;;11.93;7.70;;;5.20;34.50;;;;;;5111890;28;20483;-72
2021/12/18 10:06:39;;;;;;;10.20;6.97;;;5.10;99.90;;;;;;5100965;28;20463;-73
2021/12/18 10:09:08;;;;;;;13.10;7.03;;;5.30;1.00;;;;;;5111480;28;20451;-74
2021/12/18 10:11:35;;;;;;;15.30;8.27;;;5.30;99.90;;;;;;5111503;28;20447;-73
2021/12/18 10:14:03;;;;;;;13.10;8.50;;;5.10;1.00;;;;;;5111063;28;20444;-76
2021/12/18 10:16:32;;;;;;;13.83;8.23;;;5.00;1.00;;;;;;5111448;28;20458;-75
2021/12/18 10:19:01;;;;;;;12.03;7.20;;;4.90;99.90;;;;;;5111418;28;20455;-73
2021/12/18 10:21:30;;;;;;;11.03;8.07;;;4.90;99.90;;;;;;5111934;28;20451;-74
2021/12/18 10:24:12;;;;;;;11.47;6.97;;;5.10;99.90;;;;;;5111244;28;20906;-70
2021/12/18 10:26:42;;;;;;;11.57;6.93;;;5.10;1.00;;;;;;5111779;28;20523;-73
2021/12/18 10:29:29;;;;;;;11.83;7.73;;;5.10;1.00;;;;;;5110865;28;21012;-72
2021/12/18 10:31:57;;;;;;;10.30;6.90;;;5.00;99.90;;;;;;5098739;28;20450;-74
2021/12/18 10:34:27;;;;;;;14.37;8.20;;;5.00;1.00;;;;;;5111478;28;20538;-73
2021/12/18 10:37:13;;;;;;;16.17;8.90;;;5.10;1.00;;;;;;5111804;28;20471;-73
2021/12/18 10:39:44;;;;;;;11.17;7.60;;;5.10;99.90;;;;;;5111729;28;20471;-73
2021/12/18 10:42:22;;;;;;;12.90;7.90;;;5.20;1.00;;;;;;5110529;28;20522;-73
2021/12/18 10:45:04;;;;;;;14.30;7.77;;;5.40;99.90;;;;;;5098365;28;20834;-73
2021/12/18 10:47:55;;;;;;;7.87;5.57;;;5.30;99.90;;;;;;5111773;28;20969;-72
2021/12/18 10:50:37;;;;;;;12.67;7.97;;;5.40;99.90;;;;;;5111854;28;20443;-73
2021/12/18 10:53:07;;;;;;;10.17;6.57;;;5.30;1.00;;;;;;5098456;28;20526;-74
2021/12/18 10:55:44;;;;;;;16.23;8.13;;;5.30;1.00;;;;;;5111734;28;20451;-74
2021/12/18 10:58:14;;;;;;;11.97;7.07;;;5.20;1.00;;;;;;5111090;28;20442;-74
2021/12/18 11:00:47;;;;;;;10.20;6.70;;;5.10;99.90;;;;;;5111534;28;20534;-74
2021/12/18 11:03:24;;;;;;;13.43;7.53;;;5.10;99.90;;;;;;5110517;28;20471;-74
2021/12/18 11:06:11;;;;;;;12.40;7.13;;;5.20;99.90;;;;;;5111721;28;20473;-74
2021/12/18 11:09:05;;;;;;;14.93;8.03;;;5.10;1.00;;;;;;5111459;28;20444;-74
2021/12/18 11:14:23;;;;;;;13.83;7.50;;;5.30;1.00;;;;;;5100521;28;20473;-74
2021/12/18 11:16:52;;;;;;;11.17;6.47;;;5.00;1.00;;;;;;5111335;28;20566;-74
2021/12/18 11:19:21;;;;;;;9.50;6.13;;;5.20;90.00;;;;;;5110822;28;20860;-75
2021/12/18 11:21:51;;;;;;;11.60;7.23;;;5.20;99.90;;;;;;5110780;28;20443;-75
2021/12/18 11:24:20;;;;;;;12.27;7.10;;;5.20;1.00;;;;;;5110838;28;20579;-73
2021/12/18 11:26:56;;;;;;;11.37;6.13;;;5.20;1.00;;;;;;5111137;28;20458;-74
2021/12/18 11:29:28;;;;;;;10.23;6.57;;;5.30;1.00;;;;;;5111485;28;20535;-74
2021/12/18 11:31:55;;;;;;;13.90;7.70;;;5.40;99.90;;;;;;5097547;28;20446;-74
2021/12/18 11:34:23;;;;;;;10.10;6.43;;;5.50;99.90;;;;;;5111265;28;20455;-73
2021/12/18 11:36:52;;;;;;;12.27;7.27;;;5.50;1.00;;;;;;5111148;28;20479;-75
2021/12/18 11:39:22;;;;;;;12.50;7.07;;;5.40;1.00;;;;;;5111077;28;20450;-74
2021/12/18 11:41:51;;;;;;;10.33;6.80;;;5.40;99.90;;;;;;5114162;28;20451;-74
2021/12/18 11:44:33;;;;;;;12.77;6.77;;;5.60;99.90;;;;;;5114154;28;20569;-74
2021/12/18 11:47:16;;;;;;;10.40;6.50;;;5.30;1.00;;;;;;5114202;28;20915;-74
2021/12/18 11:49:44;;;;;;;10.70;7.03;;;5.30;12.60;;;;;;5114175;28;20452;-74
2021/12/18 11:52:12;;;;;;;10.43;6.70;;;5.30;1.00;;;;;;5113824;28;20448;-74
2021/12/18 11:54:45;;;;;;;10.47;6.10;;;5.30;8.70;;;;;;5118457;28;20899;-73
2021/12/18 11:57:13;;;;;;;11.53;6.80;;;5.40;99.90;;;;;;5136442;28;20482;-73
2021/12/18 11:59:42;;;;;;;12.30;8.17;;;5.40;99.90;;;;;;5137713;28;20465;-73
2021/12/18 12:02:11;;;;;;;13.47;8.37;;;5.30;1.00;;;;;;5119459;28;20874;-73
2021/12/18 12:04:59;;;;;;;9.20;6.77;;;5.40;99.90;;;;;;5115724;28;20482;-73
2021/12/18 12:07:28;;;;;;;9.77;6.30;;;5.20;1.00;;;;;;5114499;28;20455;-74
2021/12/18 12:10:12;;;;;;;13.20;7.27;;;5.40;75.20;;;;;;5114398;28;20947;-74
2021/12/18 12:12:51;;;;;;;13.07;7.50;;;5.70;99.90;;;;;;5111229;28;20450;-74
2021/12/18 12:15:21;;;;;;;10.63;6.93;;;5.80;94.30;;;;;;5113790;28;20447;-74
2021/12/18 12:17:57;;;;;;;16.13;7.80;;;5.80;1.00;;;;;;5114037;28;20458;-74
2021/12/18 12:20:39;;;;;;;10.80;6.70;;;5.80;1.00;;;;;;5114318;28;20438;-74
2021/12/18 12:23:09;;;;;;;12.37;7.60;;;5.80;1.00;;;;;;5113171;28;20518;-74
2021/12/18 12:25:45;;;;;;;11.10;6.67;;;5.60;99.90;;;;;;5113687;28;20927;-70
2021/12/18 12:28:14;;;;;;;10.00;6.90;;;5.50;99.90;;;;;;5113496;28;20466;-72
2021/12/18 12:30:44;;;;;;;11.30;8.03;;;5.40;1.00;;;;;;5113711;28;20527;-72
2021/12/18 12:33:21;;;;;;;11.57;6.60;;;5.40;95.90;;;;;;5113128;28;20492;-72
2021/12/18 12:36:13;;;;;;;19.63;8.77;;;5.50;1.00;;;;;;5113640;28;20494;-72
2021/12/18 12:38:53;;;;;;;12.70;7.57;;;5.40;1.00;;;;;;5102642;28;20483;-72
2021/12/18 12:41:33;;;;;;;12.57;7.97;;;5.40;37.70;;;;;;5112592;28;20493;-72
2021/12/18 12:44:04;;;;;;;10.00;6.63;;;5.50;1.00;;;;;;5113464;28;20471;-71
2021/12/18 12:46:32;;;;;;;15.87;7.87;;;5.60;99.90;;;;;;5114080;28;20437;-71
2021/12/18 12:49:02;;;;;;;10.90;8.10;;;5.80;99.90;;;;;;5113148;28;20540;-70
2021/12/18 12:52:16;;;;;;;11.33;7.30;;;5.80;14.40;;;;;;5113401;28;20526;-72
2021/12/18 12:54:59;;;;;;;12.60;7.37;;;5.60;99.90;;;;;;5113613;28;20530;-72
2021/12/18 12:57:45;;;;;;;13.30;8.23;;;5.70;99.90;;;;;;5113254;28;20988;-72
2021/12/18 13:00:44;;;;;;;13.50;7.67;;;5.70;1.00;;;;;;5113383;28;20764;-75
2021/12/18 13:03:20;;;;;;;13.57;7.27;;;6.00;1.00;;;;;;5102468;28;20491;-72
2021/12/18 13:05:56;;;;;;;11.27;7.40;;;5.90;1.00;;;;;;5113072;28;20833;-72
2021/12/18 13:08:24;;;;;;;12.30;8.10;;;5.80;99.90;;;;;;5113520;28;20446;-72
2021/12/18 13:10:55;;;;;;;8.23;6.50;;;6.00;1.00;;;;;;5113130;28;20543;-72
2021/12/18 13:13:23;;;;;;;9.53;6.83;;;5.60;1.00;;;;;;5112348;28;20471;-72
2021/12/18 13:15:54;;;;;;;11.07;8.17;;;5.60;1.00;;;;;;5113273;28;20506;-72
2021/12/18 13:18:23;;;;;;;15.50;8.60;;;5.70;99.90;;;;;;5112478;28;20451;-72
2021/12/18 13:20:55;;;;;;;14.43;8.93;;;5.70;1.00;;;;;;5113156;28;20571;-72
2021/12/18 13:23:39;;;;;;;12.00;8.67;;;5.70;99.90;;;;;;5112555;28;20842;-72
2021/12/18 13:26:10;;;;;;;13.80;8.37;;;5.50;99.90;;;;;;5112337;28;20444;-72
2021/12/18 13:28:47;;;;;;;11.60;8.67;;;5.80;99.90;;;;;;5112504;28;20440;-72
2021/12/18 13:31:13;;;;;;;13.50;8.57;;;5.90;1.00;;;;;;5112268;28;20447;-72
2021/12/18 13:33:41;;;;;;;14.33;8.57;;;5.90;99.90;;;;;;5112425;28;20471;-72
2021/12/18 13:36:08;;;;;;;14.53;8.80;;;5.80;1.00;;;;;;5111527;28;20486;-72
2021/12/18 13:38:36;;;;;;;16.03;9.07;;;6.00;1.00;;;;;;5112688;28;20440;-72
2021/12/18 13:41:11;;;;;;;18.70;9.23;;;5.90;99.90;;;;;;5111865;28;20452;-72
2021/12/18 13:43:38;;;;;;;14.70;9.30;;;6.00;1.00;;;;;;5111885;28;20442;-72
2021/12/18 13:46:07;;;;;;;13.80;9.00;;;6.10;1.00;;;;;;5111592;28;20469;-75
2021/12/18 13:48:36;;;;;;;13.60;8.07;;;6.00;1.00;;;;;;5112353;28;20451;-72
2021/12/18 13:51:07;;;;;;;14.10;9.23;;;6.00;1.00;;;;;;5111490;28;20999;-72
2021/12/18 13:53:35;;;;;;;13.70;8.13;;;6.10;1.00;;;;;;5111731;28;20963;-73
2021/12/18 13:56:07;;;;;;;12.70;8.10;;;6.20;99.90;;;;;;5111279;28;20535;-74